sensor_id;sensor_type;location;lat;lon;timestamp;P1;durP1;ratioP1;P2;durP2;ratioP2
40052;SDS011;25758;48.200;16.338;2023-04-24T00:01:41;5.03;;;2.40;;
40052;SDS011;25758;48.200;16.338;2023-04-24T00:04:07;3.35;;;2.70;;
40052;SDS011;25758;48.200;16.338;2023-04-24T00:06:35;7.20;;;2.83;;
40052;SDS011;25758;48.200;16.338;2023-04-24T00:09:07;6.53;;;2.47;;
40052;SDS011;25758;48.200;16.338;2023-04-24T00:11:35;4.15;;;3.25;;
40052;SDS011;25758;48.200;16.338;2023-04-24T00:14:01;4.97;;;2.60;;
40052;SDS011;25758;48.200;16.338;2023-04-24T00:16:27;4.22;;;2.15;;
40052;SDS011;25758;48.200;16.338;2023-04-24T00:18:53;5.22;;;2.83;;
40052;SDS011;25758;48.200;16.338;2023-04-24T00:21:19;3.60;;;2.70;;
40052;SDS011;25758;48.200;16.338;2023-04-24T00:23:46;5.60;;;2.42;;
40052;SDS011;25758;48.200;16.338;2023-04-24T00:26:12;5.18;;;2.42;;
40052;SDS011;25758;48.200;16.338;2023-04-24T00:28:38;4.13;;;2.60;;
40052;SDS011;25758;48.200;16.338;2023-04-24T00:31:04;3.35;;;2.60;;
40052;SDS011;25758;48.200;16.338;2023-04-24T00:33:30;6.28;;;2.42;;
40052;SDS011;25758;48.200;16.338;2023-04-24T00:35:56;9.73;;;2.80;;
40052;SDS011;25758;48.200;16.338;2023-04-24T00:38:22;4.00;;;2.25;;
40052;SDS011;25758;48.200;16.338;2023-04-24T00:40:48;4.38;;;3.17;;
40052;SDS011;25758;48.200;16.338;2023-04-24T00:43:15;4.75;;;2.90;;
40052;SDS011;25758;48.200;16.338;2023-04-24T00:45:41;4.45;;;2.63;;
40052;SDS011;25758;48.200;16.338;2023-04-24T00:48:07;4.35;;;2.45;;
40052;SDS011;25758;48.200;16.338;2023-04-24T00:50:33;6.72;;;2.75;;
40052;SDS011;25758;48.200;16.338;2023-04-24T00:53:00;8.23;;;2.40;;
40052;SDS011;25758;48.200;16.338;2023-04-24T00:55:26;4.28;;;3.00;;
40052;SDS011;25758;48.200;16.338;2023-04-24T00:57:52;5.53;;;2.60;;
40052;SDS011;25758;48.200;16.338;2023-04-24T01:00:18;6.78;;;2.50;;
40052;SDS011;25758;48.200;16.338;2023-04-24T01:02:44;4.70;;;2.72;;
40052;SDS011;25758;48.200;16.338;2023-04-24T01:05:14;5.43;;;2.55;;
40052;SDS011;25758;48.200;16.338;2023-04-24T01:07:43;6.15;;;3.22;;
40052;SDS011;25758;48.200;16.338;2023-04-24T01:10:11;6.40;;;3.08;;
40052;SDS011;25758;48.200;16.338;2023-04-24T01:12:37;4.55;;;2.42;;
40052;SDS011;25758;48.200;16.338;2023-04-24T01:15:03;4.88;;;3.03;;
40052;SDS011;25758;48.200;16.338;2023-04-24T01:17:31;9.25;;;2.92;;
40052;SDS011;25758;48.200;16.338;2023-04-24T01:19:57;5.70;;;2.67;;
40052;SDS011;25758;48.200;16.338;2023-04-24T01:22:24;5.80;;;2.97;;
40052;SDS011;25758;48.200;16.338;2023-04-24T01:24:51;5.93;;;2.83;;
40052;SDS011;25758;48.200;16.338;2023-04-24T01:27:18;3.78;;;2.47;;
40052;SDS011;25758;48.200;16.338;2023-04-24T01:29:45;3.78;;;2.90;;
40052;SDS011;25758;48.200;16.338;2023-04-24T01:32:12;5.18;;;3.00;;
40052;SDS011;25758;48.200;16.338;2023-04-24T01:34:38;7.40;;;3.00;;
40052;SDS011;25758;48.200;16.338;2023-04-24T01:37:05;3.65;;;2.90;;
40052;SDS011;25758;48.200;16.338;2023-04-24T01:39:31;4.57;;;2.90;;
40052;SDS011;25758;48.200;16.338;2023-04-24T01:41:58;5.35;;;3.15;;
40052;SDS011;25758;48.200;16.338;2023-04-24T01:44:24;6.88;;;3.58;;
40052;SDS011;25758;48.200;16.338;2023-04-24T01:46:51;4.20;;;3.05;;
40052;SDS011;25758;48.200;16.338;2023-04-24T01:49:18;4.45;;;3.08;;
40052;SDS011;25758;48.200;16.338;2023-04-24T01:51:44;4.32;;;3.03;;
40052;SDS011;25758;48.200;16.338;2023-04-24T01:54:10;7.03;;;3.35;;
40052;SDS011;25758;48.200;16.338;2023-04-24T01:56:36;8.38;;;3.40;;
40052;SDS011;25758;48.200;16.338;2023-04-24T01:59:05;6.78;;;4.20;;
40052;SDS011;25758;48.200;16.338;2023-04-24T02:01:34;7.07;;;2.53;;
40052;SDS011;25758;48.200;16.338;2023-04-24T02:04:01;4.05;;;2.08;;
40052;SDS011;25758;48.200;16.338;2023-04-24T02:06:27;3.55;;;2.28;;
40052;SDS011;25758;48.200;16.338;2023-04-24T02:08:52;12.48;;;2.53;;
40052;SDS011;25758;48.200;16.338;2023-04-24T02:11:18;2.50;;;2.08;;
40052;SDS011;25758;48.200;16.338;2023-04-24T02:13:44;3.15;;;2.05;;
40052;SDS011;25758;48.200;16.338;2023-04-24T02:16:09;3.60;;;2.30;;
40052;SDS011;25758;48.200;16.338;2023-04-24T02:18:35;4.55;;;2.28;;
40052;SDS011;25758;48.200;16.338;2023-04-24T02:21:01;2.30;;;1.50;;
40052;SDS011;25758;48.200;16.338;2023-04-24T02:23:27;3.63;;;1.40;;
40052;SDS011;25758;48.200;16.338;2023-04-24T02:25:53;3.50;;;1.40;;
40052;SDS011;25758;48.200;16.338;2023-04-24T02:28:18;4.85;;;1.65;;
40052;SDS011;25758;48.200;16.338;2023-04-24T02:30:44;2.78;;;2.00;;
40052;SDS011;25758;48.200;16.338;2023-04-24T02:33:11;2.08;;;1.25;;
40052;SDS011;25758;48.200;16.338;2023-04-24T02:35:37;4.30;;;1.55;;
40052;SDS011;25758;48.200;16.338;2023-04-24T02:38:03;2.88;;;1.30;;
40052;SDS011;25758;48.200;16.338;2023-04-24T02:40:28;3.58;;;2.03;;
40052;SDS011;25758;48.200;16.338;2023-04-24T02:42:54;3.22;;;1.33;;
40052;SDS011;25758;48.200;16.338;2023-04-24T02:45:20;2.97;;;1.10;;
40052;SDS011;25758;48.200;16.338;2023-04-24T02:47:46;2.22;;;1.38;;
40052;SDS011;25758;48.200;16.338;2023-04-24T02:50:11;1.98;;;1.05;;
40052;SDS011;25758;48.200;16.338;2023-04-24T02:52:37;1.33;;;1.05;;
40052;SDS011;25758;48.200;16.338;2023-04-24T02:55:03;4.15;;;1.75;;
40052;SDS011;25758;48.200;16.338;2023-04-24T02:57:29;2.15;;;1.38;;
40052;SDS011;25758;48.200;16.338;2023-04-24T02:59:55;2.53;;;1.50;;
40052;SDS011;25758;48.200;16.338;2023-04-24T03:02:20;2.55;;;1.50;;
40052;SDS011;25758;48.200;16.338;2023-04-24T03:04:46;4.15;;;1.40;;
40052;SDS011;25758;48.200;16.338;2023-04-24T03:07:13;2.35;;;1.10;;
40052;SDS011;25758;48.200;16.338;2023-04-24T03:09:39;3.13;;;1.48;;
40052;SDS011;25758;48.200;16.338;2023-04-24T03:12:05;2.30;;;1.40;;
40052;SDS011;25758;48.200;16.338;2023-04-24T03:14:31;3.00;;;1.15;;
40052;SDS011;25758;48.200;16.338;2023-04-24T03:16:57;3.22;;;1.90;;
40052;SDS011;25758;48.200;16.338;2023-04-24T03:19:23;2.78;;;1.25;;
40052;SDS011;25758;48.200;16.338;2023-04-24T03:21:48;2.70;;;1.88;;
40052;SDS011;25758;48.200;16.338;2023-04-24T03:24:15;4.18;;;1.70;;
40052;SDS011;25758;48.200;16.338;2023-04-24T03:26:41;3.92;;;2.38;;
40052;SDS011;25758;48.200;16.338;2023-04-24T03:29:06;5.03;;;1.80;;
40052;SDS011;25758;48.200;16.338;2023-04-24T03:31:32;2.00;;;1.13;;
40052;SDS011;25758;48.200;16.338;2023-04-24T03:33:57;4.05;;;1.95;;
40052;SDS011;25758;48.200;16.338;2023-04-24T03:36:23;3.60;;;1.42;;
40052;SDS011;25758;48.200;16.338;2023-04-24T03:38:49;4.13;;;1.33;;
40052;SDS011;25758;48.200;16.338;2023-04-24T03:41:15;3.47;;;1.60;;
40052;SDS011;25758;48.200;16.338;2023-04-24T03:43:40;4.00;;;1.38;;
40052;SDS011;25758;48.200;16.338;2023-04-24T03:46:06;2.75;;;1.52;;
40052;SDS011;25758;48.200;16.338;2023-04-24T03:48:34;2.15;;;1.30;;
40052;SDS011;25758;48.200;16.338;2023-04-24T03:51:00;3.08;;;1.73;;
40052;SDS011;25758;48.200;16.338;2023-04-24T03:53:25;2.95;;;1.80;;
40052;SDS011;25758;48.200;16.338;2023-04-24T03:55:52;2.42;;;1.50;;
40052;SDS011;25758;48.200;16.338;2023-04-24T03:58:18;4.32;;;1.85;;
40052;SDS011;25758;48.200;16.338;2023-04-24T04:00:44;3.38;;;1.60;;
40052;SDS011;25758;48.200;16.338;2023-04-24T04:03:11;2.70;;;1.33;;
40052;SDS011;25758;48.200;16.338;2023-04-24T04:05:38;2.65;;;1.35;;
40052;SDS011;25758;48.200;16.338;2023-04-24T04:08:04;2.40;;;1.50;;
40052;SDS011;25758;48.200;16.338;2023-04-24T04:10:30;1.15;;;0.88;;
40052;SDS011;25758;48.200;16.338;2023-04-24T04:12:55;1.85;;;1.00;;
40052;SDS011;25758;48.200;16.338;2023-04-24T04:15:21;2.17;;;1.00;;
40052;SDS011;25758;48.200;16.338;2023-04-24T04:17:47;4.88;;;0.95;;
40052;SDS011;25758;48.200;16.338;2023-04-24T04:20:12;1.80;;;1.23;;
40052;SDS011;25758;48.200;16.338;2023-04-24T04:22:38;3.55;;;1.75;;
40052;SDS011;25758;48.200;16.338;2023-04-24T04:25:04;2.83;;;1.83;;
40052;SDS011;25758;48.200;16.338;2023-04-24T04:27:31;3.60;;;1.50;;
40052;SDS011;25758;48.200;16.338;2023-04-24T04:30:00;2.47;;;1.20;;
40052;SDS011;25758;48.200;16.338;2023-04-24T04:32:30;1.88;;;0.98;;
40052;SDS011;25758;48.200;16.338;2023-04-24T04:34:58;1.75;;;0.82;;
40052;SDS011;25758;48.200;16.338;2023-04-24T04:37:28;5.45;;;1.10;;
40052;SDS011;25758;48.200;16.338;2023-04-24T04:40:01;2.85;;;1.20;;
40052;SDS011;25758;48.200;16.338;2023-04-24T04:42:37;4.03;;;0.90;;
40052;SDS011;25758;48.200;16.338;2023-04-24T04:45:06;3.75;;;1.50;;
40052;SDS011;25758;48.200;16.338;2023-04-24T04:47:36;1.88;;;1.00;;
40052;SDS011;25758;48.200;16.338;2023-04-24T04:50:02;3.25;;;1.20;;
40052;SDS011;25758;48.200;16.338;2023-04-24T04:52:29;10.05;;;7.40;;
40052;SDS011;25758;48.200;16.338;2023-04-24T04:54:55;4.45;;;1.23;;
40052;SDS011;25758;48.200;16.338;2023-04-24T04:57:20;2.25;;;1.10;;
40052;SDS011;25758;48.200;16.338;2023-04-24T04:59:46;3.25;;;0.88;;
40052;SDS011;25758;48.200;16.338;2023-04-24T05:02:12;5.15;;;1.70;;
40052;SDS011;25758;48.200;16.338;2023-04-24T05:04:38;2.53;;;1.40;;
40052;SDS011;25758;48.200;16.338;2023-04-24T05:07:04;1.95;;;1.02;;
40052;SDS011;25758;48.200;16.338;2023-04-24T05:09:30;2.17;;;1.33;;
40052;SDS011;25758;48.200;16.338;2023-04-24T05:11:56;2.38;;;1.08;;
40052;SDS011;25758;48.200;16.338;2023-04-24T05:14:21;1.83;;;0.90;;
40052;SDS011;25758;48.200;16.338;2023-04-24T05:16:47;3.20;;;1.27;;
40052;SDS011;25758;48.200;16.338;2023-04-24T05:19:13;2.35;;;1.52;;
40052;SDS011;25758;48.200;16.338;2023-04-24T05:21:39;3.53;;;0.80;;
40052;SDS011;25758;48.200;16.338;2023-04-24T05:24:06;3.35;;;0.98;;
40052;SDS011;25758;48.200;16.338;2023-04-24T05:26:32;3.28;;;1.17;;
40052;SDS011;25758;48.200;16.338;2023-04-24T05:28:57;1.63;;;0.90;;
40052;SDS011;25758;48.200;16.338;2023-04-24T05:31:23;2.50;;;1.00;;
40052;SDS011;25758;48.200;16.338;2023-04-24T05:33:50;3.90;;;0.98;;
40052;SDS011;25758;48.200;16.338;2023-04-24T05:36:15;2.05;;;1.38;;
40052;SDS011;25758;48.200;16.338;2023-04-24T05:38:41;3.42;;;1.88;;
40052;SDS011;25758;48.200;16.338;2023-04-24T05:41:07;3.50;;;1.00;;
40052;SDS011;25758;48.200;16.338;2023-04-24T05:43:32;3.75;;;1.70;;
40052;SDS011;25758;48.200;16.338;2023-04-24T05:45:58;2.65;;;1.55;;
40052;SDS011;25758;48.200;16.338;2023-04-24T05:48:24;7.68;;;3.63;;
40052;SDS011;25758;48.200;16.338;2023-04-24T05:50:50;2.10;;;1.35;;
40052;SDS011;25758;48.200;16.338;2023-04-24T05:53:17;6.45;;;1.52;;
40052;SDS011;25758;48.200;16.338;2023-04-24T05:55:43;5.47;;;1.08;;
40052;SDS011;25758;48.200;16.338;2023-04-24T05:58:09;2.33;;;1.10;;
40052;SDS011;25758;48.200;16.338;2023-04-24T06:00:35;1.50;;;1.05;;
40052;SDS011;25758;48.200;16.338;2023-04-24T06:03:01;1.52;;;1.02;;
40052;SDS011;25758;48.200;16.338;2023-04-24T06:05:28;4.57;;;2.10;;
40052;SDS011;25758;48.200;16.338;2023-04-24T06:07:55;3.25;;;1.23;;
40052;SDS011;25758;48.200;16.338;2023-04-24T06:10:21;3.03;;;1.30;;
40052;SDS011;25758;48.200;16.338;2023-04-24T06:12:46;3.10;;;0.65;;
40052;SDS011;25758;48.200;16.338;2023-04-24T06:15:12;1.88;;;0.93;;
40052;SDS011;25758;48.200;16.338;2023-04-24T06:17:38;4.00;;;0.70;;
40052;SDS011;25758;48.200;16.338;2023-04-24T06:20:03;1.90;;;0.70;;
40052;SDS011;25758;48.200;16.338;2023-04-24T06:22:31;3.40;;;0.68;;
40052;SDS011;25758;48.200;16.338;2023-04-24T06:24:56;7.22;;;1.27;;
40052;SDS011;25758;48.200;16.338;2023-04-24T06:27:22;2.72;;;0.93;;
40052;SDS011;25758;48.200;16.338;2023-04-24T06:29:47;1.20;;;0.50;;
40052;SDS011;25758;48.200;16.338;2023-04-24T06:32:19;1.15;;;0.50;;
40052;SDS011;25758;48.200;16.338;2023-04-24T06:34:46;0.90;;;0.32;;
40052;SDS011;25758;48.200;16.338;2023-04-24T06:37:12;2.22;;;1.08;;
40052;SDS011;25758;48.200;16.338;2023-04-24T06:39:37;3.28;;;0.77;;
40052;SDS011;25758;48.200;16.338;2023-04-24T06:42:03;1.13;;;0.68;;
40052;SDS011;25758;48.200;16.338;2023-04-24T06:44:29;1.75;;;0.60;;
40052;SDS011;25758;48.200;16.338;2023-04-24T06:46:54;5.72;;;0.60;;
40052;SDS011;25758;48.200;16.338;2023-04-24T06:49:20;2.25;;;0.57;;
40052;SDS011;25758;48.200;16.338;2023-04-24T06:51:45;2.08;;;1.17;;
40052;SDS011;25758;48.200;16.338;2023-04-24T06:54:11;5.88;;;2.90;;
40052;SDS011;25758;48.200;16.338;2023-04-24T06:56:37;4.15;;;1.80;;
40052;SDS011;25758;48.200;16.338;2023-04-24T06:59:03;1.98;;;0.57;;
40052;SDS011;25758;48.200;16.338;2023-04-24T07:01:29;1.00;;;0.50;;
40052;SDS011;25758;48.200;16.338;2023-04-24T07:03:54;15.55;;;2.00;;
40052;SDS011;25758;48.200;16.338;2023-04-24T07:06:20;1.90;;;0.60;;
40052;SDS011;25758;48.200;16.338;2023-04-24T07:08:47;0.63;;;0.40;;
40052;SDS011;25758;48.200;16.338;2023-04-24T07:11:13;0.65;;;0.30;;
40052;SDS011;25758;48.200;16.338;2023-04-24T07:13:39;4.28;;;0.60;;
40052;SDS011;25758;48.200;16.338;2023-04-24T07:16:07;1.50;;;0.50;;
40052;SDS011;25758;48.200;16.338;2023-04-24T07:18:33;0.55;;;0.30;;
40052;SDS011;25758;48.200;16.338;2023-04-24T07:20:59;2.15;;;0.30;;
40052;SDS011;25758;48.200;16.338;2023-04-24T07:23:25;3.53;;;0.45;;
40052;SDS011;25758;48.200;16.338;2023-04-24T07:25:51;3.65;;;1.30;;
40052;SDS011;25758;48.200;16.338;2023-04-24T07:28:17;2.55;;;0.88;;
40052;SDS011;25758;48.200;16.338;2023-04-24T07:30:43;2.10;;;0.52;;
40052;SDS011;25758;48.200;16.338;2023-04-24T07:33:08;1.45;;;0.50;;
40052;SDS011;25758;48.200;16.338;2023-04-24T07:35:36;1.98;;;0.60;;
40052;SDS011;25758;48.200;16.338;2023-04-24T07:38:02;1.45;;;0.50;;
40052;SDS011;25758;48.200;16.338;2023-04-24T07:40:27;2.20;;;0.50;;
40052;SDS011;25758;48.200;16.338;2023-04-24T07:42:53;2.63;;;0.40;;
40052;SDS011;25758;48.200;16.338;2023-04-24T07:45:19;2.05;;;0.55;;
40052;SDS011;25758;48.200;16.338;2023-04-24T07:47:45;5.30;;;0.45;;
40052;SDS011;25758;48.200;16.338;2023-04-24T07:50:11;1.45;;;0.35;;
40052;SDS011;25758;48.200;16.338;2023-04-24T07:52:37;3.03;;;0.30;;
40052;SDS011;25758;48.200;16.338;2023-04-24T07:55:04;2.90;;;0.30;;
40052;SDS011;25758;48.200;16.338;2023-04-24T07:57:30;3.17;;;0.35;;
40052;SDS011;25758;48.200;16.338;2023-04-24T07:59:55;3.55;;;0.50;;
40052;SDS011;25758;48.200;16.338;2023-04-24T08:02:21;2.17;;;0.50;;
40052;SDS011;25758;48.200;16.338;2023-04-24T08:04:51;0.98;;;0.40;;
40052;SDS011;25758;48.200;16.338;2023-04-24T08:07:18;4.20;;;0.50;;
40052;SDS011;25758;48.200;16.338;2023-04-24T08:09:43;1.63;;;0.65;;
40052;SDS011;25758;48.200;16.338;2023-04-24T08:12:09;1.88;;;0.40;;
40052;SDS011;25758;48.200;16.338;2023-04-24T08:14:35;1.63;;;0.30;;
40052;SDS011;25758;48.200;16.338;2023-04-24T08:17:00;2.90;;;0.47;;
40052;SDS011;25758;48.200;16.338;2023-04-24T08:19:27;2.95;;;1.20;;
40052;SDS011;25758;48.200;16.338;2023-04-24T08:21:53;2.83;;;0.95;;
40052;SDS011;25758;48.200;16.338;2023-04-24T08:24:18;0.65;;;0.30;;
40052;SDS011;25758;48.200;16.338;2023-04-24T08:26:44;2.03;;;0.82;;
40052;SDS011;25758;48.200;16.338;2023-04-24T08:29:10;2.67;;;1.10;;
40052;SDS011;25758;48.200;16.338;2023-04-24T08:31:35;2.45;;;0.38;;
40052;SDS011;25758;48.200;16.338;2023-04-24T08:34:01;0.55;;;0.20;;
40052;SDS011;25758;48.200;16.338;2023-04-24T08:36:27;1.75;;;0.20;;
40052;SDS011;25758;48.200;16.338;2023-04-24T08:38:52;0.80;;;0.30;;
40052;SDS011;25758;48.200;16.338;2023-04-24T08:41:18;2.00;;;0.35;;
40052;SDS011;25758;48.200;16.338;2023-04-24T08:43:47;0.45;;;0.20;;
40052;SDS011;25758;48.200;16.338;2023-04-24T08:46:13;0.82;;;0.22;;
40052;SDS011;25758;48.200;16.338;2023-04-24T08:48:41;0.95;;;0.20;;
40052;SDS011;25758;48.200;16.338;2023-04-24T08:51:07;0.93;;;0.20;;
40052;SDS011;25758;48.200;16.338;2023-04-24T08:53:34;1.08;;;0.13;;
40052;SDS011;25758;48.200;16.338;2023-04-24T08:56:01;1.17;;;0.17;;
40052;SDS011;25758;48.200;16.338;2023-04-24T08:58:28;0.60;;;0.10;;
40052;SDS011;25758;48.200;16.338;2023-04-24T09:00:54;0.50;;;0.10;;
40052;SDS011;25758;48.200;16.338;2023-04-24T09:03:20;2.28;;;0.20;;
40052;SDS011;25758;48.200;16.338;2023-04-24T09:05:47;1.83;;;0.10;;
40052;SDS011;25758;48.200;16.338;2023-04-24T09:08:16;2.92;;;0.17;;
40052;SDS011;25758;48.200;16.338;2023-04-24T09:10:43;1.00;;;0.10;;
40052;SDS011;25758;48.200;16.338;2023-04-24T09:13:09;0.98;;;0.30;;
40052;SDS011;25758;48.200;16.338;2023-04-24T09:15:38;2.28;;;0.20;;
40052;SDS011;25758;48.200;16.338;2023-04-24T09:18:05;2.17;;;0.10;;
40052;SDS011;25758;48.200;16.338;2023-04-24T09:20:31;4.90;;;0.20;;
40052;SDS011;25758;48.200;16.338;2023-04-24T09:22:57;1.52;;;0.30;;
40052;SDS011;25758;48.200;16.338;2023-04-24T09:25:25;0.60;;;0.10;;
40052;SDS011;25758;48.200;16.338;2023-04-24T09:28:01;1.30;;;0.20;;
40052;SDS011;25758;48.200;16.338;2023-04-24T09:30:28;1.17;;;0.20;;
40052;SDS011;25758;48.200;16.338;2023-04-24T09:33:13;0.35;;;0.15;;
40052;SDS011;25758;48.200;16.338;2023-04-24T09:35:41;1.00;;;0.20;;
40052;SDS011;25758;48.200;16.338;2023-04-24T09:38:08;2.67;;;0.20;;
40052;SDS011;25758;48.200;16.338;2023-04-24T09:40:34;1.67;;;0.38;;
40052;SDS011;25758;48.200;16.338;2023-04-24T09:43:00;0.63;;;0.10;;
40052;SDS011;25758;48.200;16.338;2023-04-24T09:45:28;0.57;;;0.10;;
40052;SDS011;25758;48.200;16.338;2023-04-24T09:48:00;0.82;;;0.20;;
40052;SDS011;25758;48.200;16.338;2023-04-24T09:50:26;3.10;;;0.90;;
40052;SDS011;25758;48.200;16.338;2023-04-24T09:52:59;6.28;;;0.60;;
40052;SDS011;25758;48.200;16.338;2023-04-24T09:55:28;0.75;;;0.10;;
40052;SDS011;25758;48.200;16.338;2023-04-24T09:57:55;0.40;;;0.10;;
40052;SDS011;25758;48.200;16.338;2023-04-24T10:00:29;2.53;;;0.30;;
40052;SDS011;25758;48.200;16.338;2023-04-24T10:05:32;0.55;;;0.10;;
40052;SDS011;25758;48.200;16.338;2023-04-24T10:10:29;0.40;;;0.10;;
40052;SDS011;25758;48.200;16.338;2023-04-24T10:12:59;1.00;;;0.20;;
40052;SDS011;25758;48.200;16.338;2023-04-24T10:15:26;1.00;;;0.10;;
40052;SDS011;25758;48.200;16.338;2023-04-24T10:17:52;1.17;;;0.20;;
40052;SDS011;25758;48.200;16.338;2023-04-24T10:20:22;0.70;;;0.20;;
40052;SDS011;25758;48.200;16.338;2023-04-24T10:22:49;0.38;;;0.15;;
40052;SDS011;25758;48.200;16.338;2023-04-24T10:25:22;2.35;;;0.20;;
40052;SDS011;25758;48.200;16.338;2023-04-24T10:27:51;0.90;;;0.10;;
40052;SDS011;25758;48.200;16.338;2023-04-24T10:30:18;0.70;;;0.20;;
40052;SDS011;25758;48.200;16.338;2023-04-24T10:32:45;1.05;;;0.10;;
40052;SDS011;25758;48.200;16.338;2023-04-24T10:35:14;0.95;;;0.40;;
40052;SDS011;25758;48.200;16.338;2023-04-24T10:37:46;1.30;;;0.52;;
40052;SDS011;25758;48.200;16.338;2023-04-24T10:40:17;0.50;;;0.17;;
40052;SDS011;25758;48.200;16.338;2023-04-24T10:42:46;0.90;;;0.20;;
40052;SDS011;25758;48.200;16.338;2023-04-24T10:45:16;0.88;;;0.20;;
40052;SDS011;25758;48.200;16.338;2023-04-24T10:47:50;0.40;;;0.10;;
40052;SDS011;25758;48.200;16.338;2023-04-24T10:50:17;2.60;;;0.85;;
40052;SDS011;25758;48.200;16.338;2023-04-24T10:52:46;1.08;;;0.32;;
40052;SDS011;25758;48.200;16.338;2023-04-24T10:55:13;0.63;;;0.20;;
40052;SDS011;25758;48.200;16.338;2023-04-24T10:57:40;0.65;;;0.20;;
40052;SDS011;25758;48.200;16.338;2023-04-24T11:00:26;0.60;;;0.20;;
40052;SDS011;25758;48.200;16.338;2023-04-24T11:02:52;1.52;;;0.60;;
40052;SDS011;25758;48.200;16.338;2023-04-24T11:05:19;1.33;;;0.52;;
40052;SDS011;25758;48.200;16.338;2023-04-24T11:10:38;0.80;;;0.20;;
40052;SDS011;25758;48.200;16.338;2023-04-24T11:13:13;2.58;;;0.10;;
40052;SDS011;25758;48.200;16.338;2023-04-24T11:15:41;1.05;;;0.10;;
40052;SDS011;25758;48.200;16.338;2023-04-24T11:18:12;1.25;;;0.20;;
40052;SDS011;25758;48.200;16.338;2023-04-24T11:20:41;0.88;;;0.20;;
40052;SDS011;25758;48.200;16.338;2023-04-24T11:23:12;1.45;;;0.20;;
40052;SDS011;25758;48.200;16.338;2023-04-24T11:25:38;5.65;;;0.20;;
40052;SDS011;25758;48.200;16.338;2023-04-24T11:28:04;0.70;;;0.20;;
40052;SDS011;25758;48.200;16.338;2023-04-24T11:30:31;2.47;;;0.17;;
40052;SDS011;25758;48.200;16.338;2023-04-24T11:33:02;0.40;;;0.10;;
40052;SDS011;25758;48.200;16.338;2023-04-24T11:35:29;3.15;;;0.50;;
40052;SDS011;25758;48.200;16.338;2023-04-24T11:38:02;1.70;;;0.32;;
40052;SDS011;25758;48.200;16.338;2023-04-24T11:40:28;1.05;;;0.10;;
40052;SDS011;25758;48.200;16.338;2023-04-24T11:42:53;2.78;;;0.10;;
40052;SDS011;25758;48.200;16.338;2023-04-24T11:45:23;2.03;;;0.32;;
40052;SDS011;25758;48.200;16.338;2023-04-24T11:47:50;0.65;;;0.20;;
40052;SDS011;25758;48.200;16.338;2023-04-24T11:50:20;1.38;;;0.10;;
40052;SDS011;25758;48.200;16.338;2023-04-24T11:52:48;2.65;;;0.20;;
40052;SDS011;25758;48.200;16.338;2023-04-24T11:57:44;3.45;;;1.00;;
40052;SDS011;25758;48.200;16.338;2023-04-24T12:00:15;1.10;;;0.30;;
40052;SDS011;25758;48.200;16.338;2023-04-24T12:02:41;2.17;;;0.70;;
40052;SDS011;25758;48.200;16.338;2023-04-24T12:05:07;2.92;;;0.82;;
40052;SDS011;25758;48.200;16.338;2023-04-24T12:07:40;1.95;;;1.00;;
40052;SDS011;25758;48.200;16.338;2023-04-24T12:10:09;2.75;;;0.30;;
40052;SDS011;25758;48.200;16.338;2023-04-24T12:12:35;1.02;;;0.20;;
40052;SDS011;25758;48.200;16.338;2023-04-24T12:15:01;1.55;;;0.38;;
40052;SDS011;25758;48.200;16.338;2023-04-24T12:17:32;1.00;;;0.20;;
40052;SDS011;25758;48.200;16.338;2023-04-24T12:20:03;1.38;;;0.30;;
40052;SDS011;25758;48.200;16.338;2023-04-24T12:25:12;0.65;;;0.25;;
40052;SDS011;25758;48.200;16.338;2023-04-24T12:27:43;0.70;;;0.30;;
40052;SDS011;25758;48.200;16.338;2023-04-24T12:30:13;2.92;;;0.20;;
40052;SDS011;25758;48.200;16.338;2023-04-24T12:32:41;2.13;;;0.50;;
40052;SDS011;25758;48.200;16.338;2023-04-24T12:35:10;1.75;;;0.57;;
40052;SDS011;25758;48.200;16.338;2023-04-24T12:37:37;2.38;;;1.02;;
40052;SDS011;25758;48.200;16.338;2023-04-24T12:40:08;1.58;;;0.32;;
40052;SDS011;25758;48.200;16.338;2023-04-24T12:42:36;1.40;;;0.30;;
40052;SDS011;25758;48.200;16.338;2023-04-24T12:45:08;1.85;;;0.60;;
40052;SDS011;25758;48.200;16.338;2023-04-24T12:47:34;0.98;;;0.30;;
40052;SDS011;25758;48.200;16.338;2023-04-24T12:50:00;0.95;;;0.20;;
40052;SDS011;25758;48.200;16.338;2023-04-24T12:52:27;5.60;;;0.40;;
40052;SDS011;25758;48.200;16.338;2023-04-24T12:54:55;2.78;;;0.30;;
40052;SDS011;25758;48.200;16.338;2023-04-24T12:57:22;2.10;;;0.52;;
40052;SDS011;25758;48.200;16.338;2023-04-24T12:59:49;2.67;;;0.40;;
40052;SDS011;25758;48.200;16.338;2023-04-24T13:02:15;1.63;;;0.68;;
40052;SDS011;25758;48.200;16.338;2023-04-24T13:04:45;1.27;;;0.28;;
40052;SDS011;25758;48.200;16.338;2023-04-24T13:07:12;1.85;;;0.45;;
40052;SDS011;25758;48.200;16.338;2023-04-24T13:09:41;3.67;;;1.13;;
40052;SDS011;25758;48.200;16.338;2023-04-24T13:12:08;3.97;;;1.17;;
40052;SDS011;25758;48.200;16.338;2023-04-24T13:14:34;4.68;;;1.60;;
40052;SDS011;25758;48.200;16.338;2023-04-24T13:17:00;4.00;;;1.30;;
40052;SDS011;25758;48.200;16.338;2023-04-24T13:19:26;5.00;;;2.58;;
40052;SDS011;25758;48.200;16.338;2023-04-24T13:21:53;1.92;;;0.82;;
40052;SDS011;25758;48.200;16.338;2023-04-24T13:24:20;1.50;;;0.40;;
40052;SDS011;25758;48.200;16.338;2023-04-24T13:26:49;1.38;;;0.40;;
40052;SDS011;25758;48.200;16.338;2023-04-24T13:29:18;1.52;;;0.50;;
40052;SDS011;25758;48.200;16.338;2023-04-24T13:31:45;0.77;;;0.22;;
40052;SDS011;25758;48.200;16.338;2023-04-24T13:34:12;0.60;;;0.17;;
40052;SDS011;25758;48.200;16.338;2023-04-24T13:36:38;2.33;;;0.28;;
40052;SDS011;25758;48.200;16.338;2023-04-24T13:39:04;0.80;;;0.30;;
40052;SDS011;25758;48.200;16.338;2023-04-24T13:41:30;2.63;;;0.47;;
40052;SDS011;25758;48.200;16.338;2023-04-24T13:43:57;0.65;;;0.20;;
40052;SDS011;25758;48.200;16.338;2023-04-24T13:46:23;3.20;;;1.20;;
40052;SDS011;25758;48.200;16.338;2023-04-24T13:48:49;3.70;;;1.20;;
40052;SDS011;25758;48.200;16.338;2023-04-24T13:51:14;2.35;;;0.50;;
40052;SDS011;25758;48.200;16.338;2023-04-24T13:53:40;3.80;;;0.70;;
40052;SDS011;25758;48.200;16.338;2023-04-24T13:56:05;2.38;;;0.60;;
40052;SDS011;25758;48.200;16.338;2023-04-24T13:58:31;1.77;;;0.40;;
40052;SDS011;25758;48.200;16.338;2023-04-24T14:00:57;3.00;;;0.95;;
40052;SDS011;25758;48.200;16.338;2023-04-24T14:03:23;1.73;;;0.20;;
40052;SDS011;25758;48.200;16.338;2023-04-24T14:05:49;0.55;;;0.15;;
40052;SDS011;25758;48.200;16.338;2023-04-24T14:08:14;1.73;;;0.30;;
40052;SDS011;25758;48.200;16.338;2023-04-24T14:10:40;1.58;;;0.30;;
40052;SDS011;25758;48.200;16.338;2023-04-24T14:13:07;1.75;;;0.20;;
40052;SDS011;25758;48.200;16.338;2023-04-24T14:15:33;2.30;;;1.15;;
40052;SDS011;25758;48.200;16.338;2023-04-24T14:18:00;3.45;;;1.20;;
40052;SDS011;25758;48.200;16.338;2023-04-24T14:20:26;3.05;;;0.80;;
40052;SDS011;25758;48.200;16.338;2023-04-24T14:22:51;0.88;;;0.30;;
40052;SDS011;25758;48.200;16.338;2023-04-24T14:25:18;1.80;;;0.40;;
40052;SDS011;25758;48.200;16.338;2023-04-24T14:27:44;1.42;;;0.43;;
40052;SDS011;25758;48.200;16.338;2023-04-24T14:30:10;2.00;;;0.57;;
40052;SDS011;25758;48.200;16.338;2023-04-24T14:32:38;1.45;;;0.30;;
40052;SDS011;25758;48.200;16.338;2023-04-24T14:35:05;2.00;;;0.40;;
40052;SDS011;25758;48.200;16.338;2023-04-24T14:37:31;0.50;;;0.20;;
40052;SDS011;25758;48.200;16.338;2023-04-24T14:39:57;2.03;;;0.38;;
40052;SDS011;25758;48.200;16.338;2023-04-24T14:42:23;1.23;;;0.13;;
40052;SDS011;25758;48.200;16.338;2023-04-24T14:44:49;12.60;;;2.05;;